createdAt,value
2023-02-02T00:01:32.037Z,2.83
2023-02-02T00:04:00.987Z,2.85
2023-02-02T00:06:32.175Z,2.67
2023-02-02T00:09:02.743Z,2.50
2023-02-02T00:11:31.527Z,2.45
2023-02-02T00:14:00.929Z,3.05
2023-02-02T00:16:41.277Z,3.00
2023-02-02T00:19:12.072Z,2.70
2023-02-02T00:21:42.540Z,2.53
2023-02-02T00:24:12.304Z,2.63
2023-02-02T00:26:42.561Z,2.58
2023-02-02T00:29:15.585Z,3.20
2023-02-02T00:31:44.288Z,2.78
2023-02-02T00:34:13.947Z,2.78
2023-02-02T00:36:45.089Z,2.60
2023-02-02T00:39:17.423Z,3.22
2023-02-02T00:41:45.938Z,2.83
2023-02-02T00:44:31.883Z,2.30
2023-02-02T00:47:01.586Z,3.40
2023-02-02T00:49:30.140Z,3.13
2023-02-02T00:52:00.407Z,2.53
2023-02-02T00:54:29.660Z,2.70
2023-02-02T00:56:58.271Z,3.22
2023-02-02T00:59:27.283Z,3.22
2023-02-02T01:01:59.193Z,2.85
2023-02-02T01:04:28.432Z,3.42
2023-02-02T01:06:57.303Z,2.85
2023-02-02T01:09:27.193Z,3.30
2023-02-02T01:11:55.709Z,3.00
2023-02-02T01:14:24.183Z,2.40
2023-02-02T01:16:52.553Z,2.60
2023-02-02T01:19:21.172Z,1.95
2023-02-02T01:21:51.150Z,1.92
2023-02-02T01:24:22.053Z,2.30
2023-02-02T01:26:51.841Z,2.10
2023-02-02T01:29:20.378Z,2.00
2023-02-02T01:31:49.326Z,2.15
2023-02-02T01:34:17.908Z,2.22
2023-02-02T01:36:46.460Z,2.30
2023-02-02T01:39:15.242Z,2.25
2023-02-02T01:41:43.778Z,2.00
2023-02-02T01:44:41.817Z,1.70
2023-02-02T01:47:11.782Z,1.60
2023-02-02T01:49:41.136Z,1.73
2023-02-02T01:52:11.456Z,1.40
2023-02-02T01:54:41.712Z,1.83
2023-02-02T01:57:14.759Z,1.70
2023-02-02T01:59:45.597Z,2.05
2023-02-02T02:02:15.836Z,2.35
2023-02-02T02:04:45.310Z,2.20
2023-02-02T02:07:14.070Z,3.90
2023-02-02T02:09:42.692Z,4.43
2023-02-02T02:12:15.655Z,4.57
2023-02-02T02:15:03.687Z,5.05
2023-02-02T02:17:53.594Z,4.20
2023-02-02T02:21:05.502Z,4.28
2023-02-02T02:24:32.726Z,3.53
2023-02-02T02:27:17.798Z,4.10
2023-02-02T02:30:11.320Z,3.85
2023-02-02T02:32:45.864Z,4.35
2023-02-02T02:35:26.114Z,4.20
2023-02-02T02:38:02.273Z,3.63
2023-02-02T02:40:36.223Z,3.42
2023-02-02T02:43:10.036Z,3.97
2023-02-02T02:45:40.404Z,3.60
2023-02-02T02:48:11.625Z,3.67
2023-02-02T02:50:40.314Z,3.88
2023-02-02T02:53:12.525Z,2.97
2023-02-02T02:55:48.517Z,4.13
2023-02-02T02:58:23.119Z,4.10
2023-02-02T03:01:03.684Z,3.75
2023-02-02T03:03:48.365Z,3.28
2023-02-02T03:06:22.950Z,3.63
2023-02-02T03:08:56.531Z,3.70
2023-02-02T03:11:25.337Z,3.47
2023-02-02T03:13:54.222Z,4.03
2023-02-02T03:16:22.822Z,3.05
2023-02-02T03:18:52.626Z,3.38
2023-02-02T03:21:22.123Z,3.42
2023-02-02T03:23:50.639Z,3.13
2023-02-02T03:26:19.433Z,3.00
2023-02-02T03:28:48.181Z,3.38
2023-02-02T03:31:17.253Z,3.58
2023-02-02T03:33:45.938Z,3.50
2023-02-02T03:36:15.867Z,4.05
2023-02-02T03:38:44.280Z,3.20
2023-02-02T03:41:12.677Z,2.83
2023-02-02T03:43:41.136Z,2.88
2023-02-02T03:46:09.593Z,3.08
2023-02-02T03:48:39.859Z,3.10
2023-02-02T03:51:09.077Z,3.00
2023-02-02T03:53:38.953Z,2.50
2023-02-02T03:56:08.059Z,2.63
2023-02-02T03:58:36.328Z,2.90
2023-02-02T04:01:06.081Z,2.95
2023-02-02T04:03:34.695Z,2.83
2023-02-02T04:06:03.416Z,3.30
2023-02-02T04:08:32.303Z,3.38
2023-02-02T04:11:02.229Z,3.33
2023-02-02T04:13:30.891Z,3.65
2023-02-02T04:16:00.688Z,3.85
2023-02-02T04:18:29.911Z,3.40
2023-02-02T04:20:59.432Z,3.58
2023-02-02T04:23:29.073Z,4.10
2023-02-02T04:25:58.045Z,3.72
2023-02-02T04:28:28.408Z,3.72
2023-02-02T04:30:58.064Z,4.53
2023-02-02T04:33:28.125Z,4.32
2023-02-02T04:35:57.125Z,4.55
2023-02-02T04:38:25.621Z,4.82
2023-02-02T04:40:54.117Z,4.75
2023-02-02T04:43:22.520Z,4.32
2023-02-02T04:45:57.689Z,4.78
2023-02-02T04:48:26.346Z,5.10
2023-02-02T04:51:00.286Z,4.22
2023-02-02T04:53:31.156Z,4.10
2023-02-02T04:56:05.513Z,3.88
2023-02-02T04:58:34.008Z,4.13
2023-02-02T05:01:10.012Z,4.40
2023-02-02T05:03:38.380Z,4.70
2023-02-02T05:06:07.054Z,4.30
2023-02-02T05:08:35.786Z,3.85
2023-02-02T05:11:08.075Z,4.35
2023-02-02T05:13:36.613Z,4.03
2023-02-02T05:16:06.964Z,3.97
2023-02-02T05:18:35.297Z,3.90
2023-02-02T05:21:04.541Z,3.67
2023-02-02T05:23:33.199Z,4.35
2023-02-02T05:26:01.428Z,3.45
2023-02-02T05:28:30.113Z,3.30
2023-02-02T05:30:58.457Z,3.65
2023-02-02T05:33:28.207Z,3.72
2023-02-02T05:35:56.395Z,3.75
2023-02-02T05:38:24.696Z,3.72
2023-02-02T05:40:52.874Z,3.10
2023-02-02T05:43:21.702Z,3.58
2023-02-02T05:45:50.126Z,3.40
2023-02-02T05:48:18.471Z,2.97
2023-02-02T05:50:57.387Z,2.90
2023-02-02T05:53:26.042Z,3.38
2023-02-02T05:55:54.248Z,3.00
2023-02-02T05:58:22.562Z,2.35
2023-02-02T06:00:50.806Z,2.60
2023-02-02T06:03:19.363Z,3.05
2023-02-02T06:05:49.054Z,2.55
2023-02-02T06:08:17.949Z,2.75
2023-02-02T06:10:46.385Z,2.35
2023-02-02T06:13:14.709Z,2.65
2023-02-02T06:15:43.342Z,2.60
2023-02-02T06:18:11.620Z,2.78
2023-02-02T06:20:39.966Z,2.78
2023-02-02T06:23:09.520Z,2.10
2023-02-02T06:25:37.864Z,2.63
2023-02-02T06:28:06.171Z,2.60
2023-02-02T06:30:34.726Z,2.42
2023-02-02T06:33:02.996Z,2.33
2023-02-02T06:35:31.352Z,2.15
2023-02-02T06:37:59.834Z,2.05
2023-02-02T06:40:29.762Z,2.10
2023-02-02T06:42:58.700Z,2.20
2023-02-02T06:45:27.809Z,2.30
2023-02-02T06:48:00.579Z,2.63
2023-02-02T06:50:28.950Z,2.10
2023-02-02T06:52:57.157Z,2.60
2023-02-02T06:55:26.602Z,2.63
2023-02-02T06:57:59.145Z,2.65
2023-02-02T07:00:28.267Z,2.38
2023-02-02T07:02:56.655Z,2.20
2023-02-02T07:05:25.976Z,2.85
2023-02-02T07:07:55.377Z,2.58
2023-02-02T07:11:14.486Z,2.58
2023-02-02T07:13:13.377Z,3.00
2023-02-02T07:15:42.343Z,3.05
2023-02-02T07:18:10.663Z,2.70
2023-02-02T07:20:38.949Z,3.45
2023-02-02T07:23:07.212Z,3.10
2023-02-02T07:25:35.457Z,2.70
2023-02-02T07:28:03.686Z,2.72
2023-02-02T07:30:33.558Z,3.45
2023-02-02T07:33:01.846Z,3.30
2023-02-02T07:35:30.292Z,2.97
2023-02-02T07:37:58.640Z,2.83
2023-02-02T07:40:26.991Z,2.67
2023-02-02T07:42:55.240Z,2.70
2023-02-02T07:45:27.639Z,2.47
2023-02-02T07:47:59.469Z,3.28
2023-02-02T07:50:29.429Z,2.75
2023-02-02T07:52:59.542Z,2.60
2023-02-02T07:55:28.979Z,2.88
2023-02-02T07:57:59.018Z,2.88
2023-02-02T08:00:28.528Z,3.05
2023-02-02T08:02:58.171Z,2.90
2023-02-02T08:05:27.172Z,2.47
2023-02-02T08:07:55.692Z,3.03
2023-02-02T08:10:24.045Z,2.85
2023-02-02T08:12:52.380Z,3.40
2023-02-02T08:15:21.113Z,3.00
2023-02-02T08:17:50.012Z,3.47
2023-02-02T08:20:20.574Z,3.45
2023-02-02T08:22:49.038Z,2.92
2023-02-02T08:25:17.309Z,3.42
2023-02-02T08:27:45.563Z,2.65
2023-02-02T08:30:14.557Z,2.85
2023-02-02T08:32:42.853Z,2.90
2023-02-02T08:35:11.518Z,3.50
2023-02-02T08:37:41.068Z,2.97
2023-02-02T08:40:11.198Z,3.05
2023-02-02T08:42:39.542Z,3.50
2023-02-02T08:46:04.053Z,3.30
2023-02-02T08:48:10.858Z,3.10
2023-02-02T08:50:40.823Z,3.00
2023-02-02T08:53:10.349Z,3.40
2023-02-02T08:55:38.739Z,2.88
2023-02-02T08:58:06.950Z,3.20
2023-02-02T09:00:35.257Z,3.30
2023-02-02T09:03:03.474Z,2.45
2023-02-02T09:05:32.129Z,2.65
2023-02-02T09:08:00.671Z,2.60
2023-02-02T09:10:31.891Z,2.20
2023-02-02T09:13:00.304Z,2.40
2023-02-02T09:15:28.575Z,2.45
2023-02-02T09:17:56.948Z,2.67
2023-02-02T09:20:25.189Z,2.60
2023-02-02T09:22:55.926Z,2.25
2023-02-02T09:25:25.216Z,2.30
2023-02-02T09:27:54.920Z,2.30
2023-02-02T09:30:23.330Z,2.13
2023-02-02T09:32:51.994Z,2.53
2023-02-02T09:35:20.321Z,2.17
2023-02-02T09:37:48.572Z,2.60
2023-02-02T09:40:20.410Z,2.20
2023-02-02T09:43:00.194Z,2.20
2023-02-02T09:45:40.199Z,2.05
2023-02-02T09:48:20.959Z,1.95
2023-02-02T09:50:51.903Z,1.70
2023-02-02T09:53:26.810Z,1.77
2023-02-02T09:55:58.490Z,2.03
2023-02-02T09:58:32.279Z,1.88
2023-02-02T10:01:08.400Z,1.58
2023-02-02T10:03:43.589Z,1.60
2023-02-02T10:06:22.517Z,1.30
2023-02-02T10:08:56.699Z,1.48
2023-02-02T10:11:33.542Z,1.33
2023-02-02T10:14:08.766Z,1.08
2023-02-02T10:16:39.273Z,1.20
2023-02-02T10:19:11.960Z,1.42
2023-02-02T10:21:47.123Z,1.33
2023-02-02T10:24:19.758Z,1.20
2023-02-02T10:26:50.459Z,1.30
2023-02-02T10:29:46.987Z,1.38
2023-02-02T10:32:24.617Z,1.33
2023-02-02T10:35:13.411Z,1.40
2023-02-02T10:37:51.272Z,1.30
2023-02-02T10:40:33.426Z,1.33
2023-02-02T10:44:07.580Z,1.20
2023-02-02T10:47:05.796Z,1.40
2023-02-02T10:50:39.596Z,1.80
2023-02-02T10:53:21.448Z,1.50
2023-02-02T11:14:51.554Z,1.38
2023-02-02T11:40:45.702Z,1.73
2023-02-02T13:45:22.303Z,4.80
2023-02-02T15:17:40.263Z,3.88
2023-02-02T15:46:10.672Z,3.40
2023-02-02T15:49:37.404Z,3.30
2023-02-02T15:52:29.903Z,3.30
2023-02-02T15:55:00.608Z,3.58
2023-02-02T15:58:09.684Z,3.15
2023-02-02T16:00:43.039Z,3.05
2023-02-02T16:03:16.244Z,2.80
2023-02-02T16:05:56.061Z,2.90
2023-02-02T16:08:28.991Z,2.78
2023-02-02T16:11:23.533Z,2.50
2023-02-02T16:14:04.695Z,2.97
2023-02-02T16:16:36.873Z,2.90
2023-02-02T16:19:14.675Z,2.25
2023-02-02T16:21:53.885Z,3.17
2023-02-02T16:24:26.999Z,2.50
2023-02-02T16:27:05.089Z,2.55
2023-02-02T16:30:09.732Z,2.72
2023-02-02T16:32:56.963Z,2.40
2023-02-02T16:35:51.318Z,2.20
2023-02-02T16:38:26.965Z,2.05
2023-02-02T16:41:07.267Z,2.00
2023-02-02T16:43:38.019Z,1.80
2023-02-02T16:46:10.643Z,1.67
2023-02-02T16:48:42.804Z,2.30
2023-02-02T16:51:27.271Z,2.20
2023-02-02T16:54:03.527Z,2.10
2023-02-02T16:56:35.759Z,1.80
2023-02-02T16:59:07.536Z,1.70
2023-02-02T17:01:39.916Z,1.73
2023-02-02T17:04:18.877Z,1.60
2023-02-02T17:06:52.813Z,1.83
2023-02-02T17:09:35.096Z,1.60
2023-02-02T17:12:14.320Z,1.60
2023-02-02T17:14:53.403Z,1.40
2023-02-02T17:17:21.727Z,4.53
2023-02-02T17:19:50.029Z,1.90
2023-02-02T17:22:21.900Z,1.92
2023-02-02T17:24:53.377Z,1.40
2023-02-02T17:27:27.356Z,1.85
2023-02-02T17:29:57.019Z,1.80
2023-02-02T17:32:25.564Z,1.67
2023-02-02T17:34:54.258Z,1.42
2023-02-02T17:37:22.463Z,1.60
2023-02-02T17:39:52.291Z,1.60
2023-02-02T17:42:25.421Z,1.50
2023-02-02T17:44:53.929Z,1.33
2023-02-02T17:47:22.133Z,1.55
2023-02-02T17:49:50.483Z,1.40
2023-02-02T17:52:19.705Z,1.30
2023-02-02T17:54:48.047Z,1.75
2023-02-02T17:57:17.678Z,1.23
2023-02-02T17:59:46.135Z,1.90
2023-02-02T18:02:17.566Z,1.55
2023-02-02T18:04:45.974Z,1.60
2023-02-02T18:07:14.272Z,1.65
2023-02-02T18:09:42.626Z,1.75
2023-02-02T18:12:11.031Z,1.58
2023-02-02T18:14:41.010Z,1.40
2023-02-02T18:17:09.539Z,1.50
2023-02-02T18:19:39.387Z,1.48
2023-02-02T18:22:07.665Z,1.50
2023-02-02T18:24:35.970Z,1.48
2023-02-02T18:27:04.246Z,1.42
2023-02-02T18:29:32.559Z,1.40
2023-02-02T18:32:02.469Z,1.40
2023-02-02T18:34:32.368Z,1.30
2023-02-02T18:37:00.642Z,1.60
2023-02-02T18:39:29.148Z,1.70
2023-02-02T18:41:57.979Z,1.80
2023-02-02T18:44:26.699Z,1.65
2023-02-02T18:46:55.249Z,1.45
2023-02-02T18:49:25.036Z,1.27
2023-02-02T18:51:53.992Z,1.20
2023-02-02T18:54:23.015Z,1.10
2023-02-02T18:56:51.256Z,1.30
2023-02-02T18:59:19.547Z,1.17
2023-02-02T19:01:47.870Z,1.20
2023-02-02T19:04:16.292Z,1.25
2023-02-02T19:07:03.080Z,1.75
2023-02-02T19:09:31.577Z,1.40
2023-02-02T19:11:59.933Z,1.20
2023-02-02T19:14:31.902Z,1.27
2023-02-02T19:17:09.214Z,1.27
2023-02-02T19:19:40.198Z,1.60
2023-02-02T19:22:19.798Z,1.15
2023-02-02T19:24:48.934Z,1.15
2023-02-02T19:27:19.944Z,1.10
2023-02-02T19:29:50.711Z,1.10
2023-02-02T19:32:21.608Z,1.27
2023-02-02T19:34:50.766Z,1.25
2023-02-02T19:37:25.276Z,1.40
2023-02-02T19:39:56.548Z,1.20
2023-02-02T19:42:25.142Z,1.17
2023-02-02T19:44:54.529Z,1.17
2023-02-02T19:47:29.567Z,1.65
2023-02-02T19:49:57.967Z,1.75
2023-02-02T19:52:27.761Z,1.50
2023-02-02T19:54:56.091Z,1.13
2023-02-02T19:57:36.206Z,1.23
2023-02-02T20:00:19.088Z,1.30
2023-02-02T20:02:57.088Z,1.40
2023-02-02T20:05:27.475Z,1.60
2023-02-02T20:08:03.294Z,1.38
2023-02-02T20:10:38.781Z,1.42
2023-02-02T20:13:17.215Z,1.83
2023-02-02T20:15:45.663Z,1.42
2023-02-02T20:18:18.301Z,1.38
2023-02-02T20:20:49.823Z,1.33
2023-02-02T20:23:32.813Z,1.40
2023-02-02T20:26:04.947Z,1.55
2023-02-02T20:28:43.213Z,1.50
2023-02-02T20:31:12.962Z,1.77
2023-02-02T20:33:44.209Z,1.40
2023-02-02T20:36:30.909Z,1.40
2023-02-02T20:39:13.336Z,1.55
2023-02-02T20:41:43.767Z,1.63
2023-02-02T20:44:12.824Z,1.83
2023-02-02T20:46:41.102Z,1.58
2023-02-02T20:49:09.373Z,1.67
2023-02-02T20:51:40.489Z,1.50
2023-02-02T20:54:11.187Z,1.65
2023-02-02T20:56:39.442Z,1.63
2023-02-02T20:59:07.838Z,1.63
2023-02-02T21:01:36.513Z,1.52
2023-02-02T21:04:07.077Z,1.73
2023-02-02T21:06:36.130Z,1.80
2023-02-02T21:09:04.760Z,1.83
2023-02-02T21:11:34.634Z,1.73
2023-02-02T21:14:03.178Z,2.00
2023-02-02T21:16:31.557Z,1.90
2023-02-02T21:18:59.851Z,1.70
2023-02-02T21:21:28.451Z,1.98
2023-02-02T21:23:56.755Z,1.70
2023-02-02T21:26:29.992Z,2.00
2023-02-02T21:28:59.868Z,1.92
2023-02-02T21:31:28.885Z,1.88
2023-02-02T21:33:57.416Z,2.00
2023-02-02T21:36:32.547Z,1.80
2023-02-02T21:39:07.339Z,1.85
2023-02-02T21:41:35.592Z,1.83
2023-02-02T21:44:13.540Z,2.05
2023-02-02T21:46:42.094Z,1.70
2023-02-02T21:49:26.488Z,2.00
2023-02-02T21:51:58.603Z,2.22
2023-02-02T21:54:28.794Z,1.77
2023-02-02T21:56:57.279Z,1.70
2023-02-02T21:59:35.787Z,2.20
2023-02-02T22:02:28.550Z,2.10
2023-02-02T22:05:00.056Z,1.90
2023-02-02T22:07:28.338Z,2.42
2023-02-02T22:09:56.727Z,1.80
2023-02-02T22:12:28.471Z,2.08
2023-02-02T22:15:01.370Z,2.05
2023-02-02T22:17:39.749Z,1.90
2023-02-02T22:20:29.872Z,2.03
2023-02-02T22:22:58.316Z,2.10
2023-02-02T22:25:33.299Z,1.92
2023-02-02T22:28:04.751Z,2.10
2023-02-02T22:30:38.170Z,2.25
2023-02-02T22:33:08.629Z,1.80
2023-02-02T22:35:37.328Z,1.80
2023-02-02T22:38:06.316Z,1.88
2023-02-02T22:40:34.845Z,1.80
2023-02-02T22:43:05.644Z,1.73
2023-02-02T22:45:35.593Z,1.98
2023-02-02T22:48:04.209Z,2.20
2023-02-02T22:50:34.890Z,2.30
2023-02-02T22:53:04.067Z,2.00
2023-02-02T22:55:32.477Z,1.80
2023-02-02T22:58:01.003Z,2.08
2023-02-02T23:00:30.884Z,1.73
2023-02-02T23:03:00.606Z,1.95
2023-02-02T23:05:29.420Z,1.70
2023-02-02T23:07:57.735Z,2.05
2023-02-02T23:10:29.609Z,1.52
2023-02-02T23:12:58.982Z,1.90
2023-02-02T23:15:27.740Z,2.05
2023-02-02T23:17:56.073Z,2.30
2023-02-02T23:20:26.323Z,1.83
2023-02-02T23:22:55.148Z,1.80
2023-02-02T23:25:23.542Z,1.90
2023-02-02T23:27:51.897Z,1.95
2023-02-02T23:30:22.120Z,1.90
2023-02-02T23:32:50.901Z,2.67
2023-02-02T23:35:19.294Z,2.10
2023-02-02T23:37:48.868Z,2.05
2023-02-02T23:40:17.556Z,2.08
2023-02-02T23:42:45.821Z,1.98
2023-02-02T23:45:16.192Z,2.08
2023-02-02T23:47:44.881Z,2.20
2023-02-02T23:50:13.909Z,2.22
2023-02-02T23:52:42.360Z,2.15
2023-02-02T23:55:12.367Z,1.83
2023-02-02T23:57:40.879Z,2.15
